Thursday, November 15, 2018, 2:26 AM GMT
Back to Local

CWOD, Normandin

Location: , , Canada Lat: 48.833
Local Time: 2:26 AM GMT ( 2:26 GMT) Lon: -72.55
Time Zone: GMT Elev: 449 ft

Show me the last for .
Show Coded

Time T Td Feel RH Dir Speed Gust Alt SLP Vis Weather Sky Remarks
2018-11-15 02:00 10 3 -3 71 310° 10 - - 30.39 0 Peak wind: 20 mph (18 kts) from 300° at 01 min
2018-11-15 01:00 12 4 -6 69 300° 14 20 - 30.38 0 Peak wind: 26 mph (23 kts) from 290° at 03 min
2018-11-15 00:00 12 3 -9 68 290° 17 26 - 30.35 0 Peak wind: 26 mph (23 kts) from 310° at 21 min
2018-11-14 23:00 12 3 -9 65 300° 18 28 - 30.32 0 Peak wind: 32 mph (28 kts) from 290° at 25 min
Pressure rising rapidly
2018-11-14 22:00 12 4 -10 67 290° 23 32 - 30.26 0 Peak wind: 36 mph (32 kts) from 290° at 42 min
2018-11-14 21:00 14 4 -8 65 280° 22 32 - 30.22 0 Peak wind: 35 mph (31 kts) from 290° at 14 min
2018-11-14 20:00 15 5 -6 64 290° 23 31 - 30.18 0 Peak wind: 34 mph (30 kts) from 290° at 33 min
2018-11-14 19:00 15 5 -6 66 290° 24 31 - 30.15 0 Peak wind: 33 mph (29 kts) from 280° at 22 min
2018-11-14 18:00 14 4 -8 64 290° 22 32 - 30.12 0 Peak wind: 32 mph (28 kts) from 280° at 55 min
2018-11-14 17:00 11 2 -11 64 300° 23 31 - 30.10 0 Peak wind: 31 mph (27 kts) from 300° at 11 min
2018-11-14 16:00 10 -1 -13 61 290° 23 32 - 30.08 0 Peak wind: 33 mph (29 kts) from 300° at 12 min
2018-11-14 15:00 9 -1 -15 63 290° 23 35 - 30.06 0 Peak wind: 34 mph (30 kts) from 280° at 55 min
2018-11-14 14:00 8 0 -13 68 290° 16 22 - 30.04 0 Peak wind: 24 mph (21 kts) from 270° at 32 min
2018-11-14 13:00 6 -2 -14 67 280° 14 21 - 30.01 0 Peak wind: 25 mph (22 kts) from 280° at 01 min
2018-11-14 12:00 6 -3 -15 66 280° 17 23 - 29.98 0 Peak wind: 23 mph (20 kts) from 300° at 06 min
2018-11-14 11:00 6 -2 -16 66 280° 20 26 - 29.96 0 Peak wind: 26 mph (23 kts) from 280° at 09 min
2018-11-14 10:00 7 -1 -10 68 290° 15 - - 29.95 0 Peak wind: 24 mph (21 kts) from 290° at 44 min
2018-11-14 09:00 6 -3 -14 67 290° 13 20 - 29.93 0 Peak wind: 19 mph (17 kts) from 280° at 50 min
2018-11-14 08:00 5 -3 -12 69 280° 14 - - 29.93 0 Peak wind: 23 mph (20 kts) from 300° at 10 min
1-hr Precip Total: 0.01"
2018-11-14 07:00 6 -3 -16 66 300° 17 23 - 29.92 0 Peak wind: 33 mph (29 kts) from 290° at 14 min
2018-11-14 06:00 7 -2 -16 65 300° 21 29 - 29.91 0 Peak wind: 32 mph (28 kts) from 310° at 10 min
2018-11-14 05:00 8 -1 -14 64 290° 17 28 - 29.90 0 Peak wind: 27 mph (24 kts) from 290° at 50 min
2018-11-14 04:00 11 1 -9 62 300° 18 24 - 29.88 0 Peak wind: 26 mph (23 kts) from 310° at 09 min
2018-11-14 03:00 10 2 -11 68 310° 21 26 - 29.88 0 Peak wind: 31 mph (27 kts) from 300° at 48 min

Support USWX by starting your Amazon purchase here.